createdAt,value
2019-05-21T00:01:45.782Z,3.25
2019-05-21T00:04:27.490Z,3.85
2019-05-21T00:06:44.721Z,3.33
2019-05-21T00:09:13.363Z,4.62
2019-05-21T00:11:42.031Z,3.55
2019-05-21T00:14:10.681Z,5.45
2019-05-21T00:16:39.340Z,2.92
2019-05-21T00:19:08.055Z,4.40
2019-05-21T00:21:36.641Z,4.08
2019-05-21T00:24:05.261Z,4.78
2019-05-21T00:26:33.929Z,3.60
2019-05-21T00:29:20.315Z,4.90
2019-05-21T00:32:06.762Z,3.42
2019-05-21T00:34:53.264Z,4.05
2019-05-21T00:37:39.645Z,4.95
2019-05-21T00:40:26.250Z,4.00
2019-05-21T00:42:54.881Z,3.45
2019-05-21T00:45:23.484Z,4.15
2019-05-21T00:47:52.168Z,4.10
2019-05-21T00:50:20.909Z,4.55
2019-05-21T00:52:49.570Z,4.35
2019-05-21T00:55:18.170Z,3.95
2019-05-21T00:57:46.705Z,4.75
2019-05-21T01:00:15.596Z,4.85
2019-05-21T01:02:44.446Z,4.75
2019-05-21T01:05:13.050Z,4.90
2019-05-21T01:07:41.647Z,5.85
2019-05-21T01:10:10.283Z,4.30
2019-05-21T01:12:38.896Z,4.67
2019-05-21T01:15:07.653Z,5.58
2019-05-21T01:17:37.273Z,6.50
2019-05-21T01:20:05.905Z,5.75
2019-05-21T01:22:34.491Z,6.25
2019-05-21T01:25:03.071Z,5.35
2019-05-21T01:27:31.769Z,7.53
2019-05-21T01:30:00.333Z,6.35
2019-05-21T01:32:28.919Z,5.40
2019-05-21T01:34:57.473Z,4.42
2019-05-21T01:37:26.072Z,7.72
2019-05-21T01:39:54.661Z,7.45
2019-05-21T01:42:23.225Z,6.50
2019-05-21T01:44:51.852Z,5.70
2019-05-21T01:47:20.527Z,5.45
2019-05-21T01:49:49.248Z,7.22
2019-05-21T01:52:17.853Z,8.55
2019-05-21T01:54:46.482Z,6.53
2019-05-21T01:57:15.113Z,5.72
2019-05-21T01:59:43.704Z,6.35
2019-05-21T02:02:12.315Z,6.37
2019-05-21T02:04:40.931Z,8.45
2019-05-21T02:07:09.568Z,9.23
2019-05-21T02:09:57.483Z,8.48
2019-05-21T02:12:26.061Z,9.18
2019-05-21T02:14:54.766Z,7.10
2019-05-21T02:17:23.414Z,8.33
2019-05-21T02:19:52.054Z,8.90
2019-05-21T02:22:20.625Z,7.08
2019-05-21T02:24:49.249Z,7.30
2019-05-21T02:27:17.871Z,7.87
2019-05-21T02:29:46.457Z,8.73
2019-05-21T02:32:15.058Z,6.42
2019-05-21T02:34:43.591Z,6.92
2019-05-21T02:37:12.200Z,7.10
2019-05-21T02:39:40.786Z,8.13
2019-05-21T02:42:09.420Z,7.00
2019-05-21T02:44:38.090Z,8.55
2019-05-21T02:47:06.748Z,8.63
2019-05-21T02:49:35.352Z,7.72
2019-05-21T02:52:03.880Z,8.35
2019-05-21T02:54:41.026Z,7.12
2019-05-21T02:57:02.802Z,8.03
2019-05-21T02:59:31.406Z,7.72
2019-05-21T03:02:05.957Z,6.58
2019-05-21T03:04:34.500Z,7.72
2019-05-21T03:07:18.504Z,5.65
2019-05-21T03:09:47.890Z,8.13
2019-05-21T03:12:16.403Z,7.30
2019-05-21T03:14:44.980Z,8.33
2019-05-21T03:17:13.685Z,8.08
2019-05-21T03:19:42.228Z,8.55
2019-05-21T03:22:10.825Z,6.45
2019-05-21T03:24:39.460Z,7.40
2019-05-21T03:27:08.071Z,10.25
2019-05-21T03:29:36.724Z,8.90
2019-05-21T03:32:05.396Z,10.25
2019-05-21T03:34:34.069Z,9.95
2019-05-21T03:37:03.707Z,8.15
2019-05-21T03:39:32.414Z,8.38
2019-05-21T03:42:01.006Z,7.62
2019-05-21T03:44:29.659Z,8.78
2019-05-21T03:46:58.292Z,7.90
2019-05-21T03:49:27.900Z,7.58
2019-05-21T03:51:56.508Z,8.40
2019-05-21T03:54:25.273Z,9.48
2019-05-21T03:56:53.860Z,8.93
2019-05-21T03:59:22.528Z,9.55
2019-05-21T04:01:51.139Z,9.60
2019-05-21T04:04:19.671Z,9.35
2019-05-21T04:06:52.093Z,9.13
2019-05-21T04:09:18.535Z,8.50
2019-05-21T04:11:47.231Z,10.05
2019-05-21T04:14:31.185Z,9.88
2019-05-21T04:17:05.936Z,10.15
2019-05-21T04:19:37.209Z,10.50
2019-05-21T04:22:08.268Z,16.90
2019-05-21T04:24:36.889Z,8.88
2019-05-21T04:27:05.581Z,14.00
2019-05-21T04:29:34.100Z,12.63
2019-05-21T04:32:02.736Z,12.15
2019-05-21T04:34:31.393Z,9.93
2019-05-21T04:37:09.722Z,10.78
2019-05-21T04:39:30.444Z,11.53
2019-05-21T04:41:59.094Z,11.55
2019-05-21T04:44:27.734Z,12.78
2019-05-21T04:46:56.326Z,9.98
2019-05-21T04:49:24.955Z,11.35
2019-05-21T04:51:53.611Z,12.75
2019-05-21T04:54:22.248Z,11.33
2019-05-21T04:56:50.864Z,13.95
2019-05-21T04:59:19.478Z,11.28
2019-05-21T05:01:48.187Z,10.53
2019-05-21T05:04:21.487Z,10.82
2019-05-21T05:06:47.106Z,15.08
2019-05-21T05:09:15.675Z,10.53
2019-05-21T05:11:44.325Z,12.73
2019-05-21T05:14:13.912Z,11.80
2019-05-21T05:16:42.496Z,16.45
2019-05-21T05:19:11.026Z,12.82
2019-05-21T05:21:39.723Z,15.50
2019-05-21T05:24:08.401Z,13.30
2019-05-21T05:26:37.005Z,13.50
2019-05-21T05:29:05.541Z,12.60
2019-05-21T05:31:34.149Z,13.70
2019-05-21T05:34:02.779Z,15.95
2019-05-21T05:36:31.474Z,13.78
2019-05-21T05:39:00.241Z,15.95
2019-05-21T05:41:30.320Z,16.40
2019-05-21T05:44:00.032Z,18.70
2019-05-21T05:46:28.571Z,15.25
2019-05-21T05:49:06.109Z,15.23
2019-05-21T05:51:34.651Z,14.90
2019-05-21T05:54:03.279Z,16.27
2019-05-21T05:56:32.058Z,16.93
2019-05-21T05:59:00.697Z,17.05
2019-05-21T06:01:30.862Z,16.52
2019-05-21T06:03:59.644Z,15.03
2019-05-21T06:06:29.546Z,19.00
2019-05-21T06:08:58.248Z,19.62
2019-05-21T06:11:26.941Z,17.27
2019-05-21T06:13:55.753Z,18.95
2019-05-21T06:16:24.405Z,14.18
2019-05-21T06:18:53.095Z,18.65
2019-05-21T06:21:21.704Z,18.23
2019-05-21T06:23:50.284Z,17.17
2019-05-21T06:26:18.896Z,20.82
2019-05-21T06:28:47.487Z,16.17
2019-05-21T06:31:16.213Z,16.23
2019-05-21T06:33:44.806Z,15.32
2019-05-21T06:36:13.631Z,15.55
2019-05-21T06:38:42.383Z,17.02
2019-05-21T06:41:11.381Z,18.87
2019-05-21T06:43:40.365Z,18.87
2019-05-21T06:46:09.213Z,16.77
2019-05-21T06:48:38.163Z,18.23
2019-05-21T06:51:07.147Z,17.10
2019-05-21T06:53:35.945Z,18.50
2019-05-21T06:56:07.388Z,16.32
2019-05-21T06:58:35.043Z,16.02
2019-05-21T07:01:03.821Z,17.67
2019-05-21T07:03:32.541Z,18.48
2019-05-21T07:06:01.150Z,20.77
2019-05-21T07:08:34.473Z,16.70
2019-05-21T07:11:00.081Z,22.75
2019-05-21T07:13:30.999Z,19.00
2019-05-21T07:15:59.305Z,19.70
2019-05-21T07:18:27.901Z,16.62
2019-05-21T07:20:57.351Z,15.80
2019-05-21T07:23:27.207Z,18.23
2019-05-21T07:25:55.852Z,19.92
2019-05-21T07:28:24.491Z,17.20
2019-05-21T07:30:53.467Z,18.17
2019-05-21T07:33:22.077Z,19.00
2019-05-21T07:35:50.738Z,20.23
2019-05-21T07:38:19.347Z,22.50
2019-05-21T07:40:47.971Z,19.90
2019-05-21T07:43:16.613Z,21.17
2019-05-21T07:45:45.228Z,18.10
2019-05-21T07:48:13.864Z,21.77
2019-05-21T07:50:42.551Z,16.57
2019-05-21T07:53:11.236Z,22.10
2019-05-21T07:55:39.824Z,20.65
2019-05-21T07:58:08.557Z,23.60
2019-05-21T08:00:37.185Z,20.35
2019-05-21T08:03:05.759Z,21.45
2019-05-21T08:05:34.318Z,21.73
2019-05-21T08:08:03.173Z,22.25
2019-05-21T08:10:31.909Z,21.65
2019-05-21T08:13:00.576Z,20.77
2019-05-21T08:15:29.292Z,21.57
2019-05-21T08:17:57.935Z,23.65
2019-05-21T08:20:26.538Z,22.37
2019-05-21T08:22:55.269Z,22.50
2019-05-21T08:25:23.992Z,19.42
2019-05-21T08:27:52.530Z,18.42
2019-05-21T08:30:21.187Z,18.25
2019-05-21T08:32:49.718Z,19.25
2019-05-21T08:35:18.438Z,17.98
2019-05-21T08:37:47.066Z,20.08
2019-05-21T08:40:15.809Z,15.72
2019-05-21T08:42:44.349Z,20.00
2019-05-21T08:45:13.077Z,18.15
2019-05-21T08:47:41.706Z,16.90
2019-05-21T08:50:10.519Z,16.55
2019-05-21T08:52:39.167Z,16.20
2019-05-21T08:55:07.991Z,20.82
2019-05-21T08:57:36.677Z,17.27
2019-05-21T09:00:06.417Z,17.37
2019-05-21T09:02:35.127Z,16.90
2019-05-21T09:05:04.196Z,19.05
2019-05-21T09:07:32.825Z,17.15
2019-05-21T09:10:01.523Z,17.25
2019-05-21T09:12:30.087Z,16.15
2019-05-21T09:14:58.705Z,14.45
2019-05-21T09:17:27.419Z,16.23
2019-05-21T09:19:56.158Z,17.37
2019-05-21T09:22:24.863Z,13.58
2019-05-21T09:24:53.542Z,15.95
2019-05-21T09:27:22.281Z,14.58
2019-05-21T09:29:50.829Z,14.00
2019-05-21T09:32:20.495Z,13.30
2019-05-21T09:34:49.623Z,14.35
2019-05-21T09:37:20.093Z,11.12
2019-05-21T09:39:48.600Z,13.53
2019-05-21T09:42:18.316Z,12.95
2019-05-21T09:44:46.987Z,13.50
2019-05-21T09:47:16.592Z,15.20
2019-05-21T09:49:45.259Z,14.25
2019-05-21T09:52:13.885Z,14.83
2019-05-21T09:54:42.501Z,14.03
2019-05-21T09:57:13.166Z,15.55
2019-05-21T10:00:00.818Z,15.40
2019-05-21T10:02:31.204Z,12.98
2019-05-21T10:04:59.961Z,16.77
2019-05-21T10:07:38.980Z,12.80
2019-05-21T10:09:59.058Z,14.98
2019-05-21T10:12:27.810Z,16.73
2019-05-21T10:14:56.507Z,16.55
2019-05-21T10:17:25.088Z,14.47
2019-05-21T10:19:53.654Z,15.25
2019-05-21T10:22:22.269Z,15.10
2019-05-21T10:25:03.496Z,14.87
2019-05-21T10:27:32.009Z,12.75
2019-05-21T10:30:01.756Z,17.55
2019-05-21T10:32:31.703Z,14.20
2019-05-21T10:35:00.426Z,15.32
2019-05-21T10:37:29.232Z,16.20
2019-05-21T10:39:57.902Z,19.60
2019-05-21T10:42:26.560Z,15.90
2019-05-21T10:44:55.276Z,18.20
2019-05-21T10:47:23.808Z,19.20
2019-05-21T10:49:52.503Z,16.85
2019-05-21T10:52:21.088Z,14.90
2019-05-21T10:54:49.814Z,15.03
2019-05-21T10:57:18.564Z,17.73
2019-05-21T10:59:47.224Z,14.78
2019-05-21T11:02:28.176Z,15.75
2019-05-21T11:05:02.736Z,15.45
2019-05-21T11:07:31.401Z,16.15
2019-05-21T11:10:00.324Z,15.28
2019-05-21T11:12:28.992Z,16.97
2019-05-21T11:14:57.643Z,17.92
2019-05-21T11:17:26.295Z,15.50
2019-05-21T11:19:54.914Z,18.65
2019-05-21T11:22:23.662Z,18.07
2019-05-21T11:24:52.366Z,15.23
2019-05-21T11:27:21.037Z,17.25
2019-05-21T11:29:49.820Z,17.95
2019-05-21T11:32:18.431Z,18.30
2019-05-21T11:34:49.940Z,20.08
2019-05-21T11:37:17.579Z,18.77
2019-05-21T11:39:46.411Z,22.42
2019-05-21T11:42:15.019Z,18.05
2019-05-21T11:44:43.715Z,19.77
2019-05-21T11:47:12.403Z,20.77
2019-05-21T11:49:41.088Z,18.80
2019-05-21T11:52:09.932Z,19.25
2019-05-21T11:54:38.634Z,22.22
2019-05-21T11:57:08.228Z,20.80
2019-05-21T11:59:36.941Z,22.35
2019-05-21T12:02:07.787Z,22.13
2019-05-21T12:04:36.509Z,21.68
2019-05-21T12:07:05.367Z,23.83
2019-05-21T12:09:34.134Z,24.02
2019-05-21T12:12:02.873Z,23.55
2019-05-21T12:14:31.655Z,25.57
2019-05-21T12:17:00.511Z,24.65
2019-05-21T12:19:30.236Z,25.17
2019-05-21T12:21:59.051Z,25.65
2019-05-21T12:24:27.856Z,24.25
2019-05-21T12:26:56.563Z,22.62
2019-05-21T12:29:25.252Z,27.13
2019-05-21T12:31:54.104Z,21.68
2019-05-21T12:34:22.823Z,23.25
2019-05-21T12:36:51.636Z,23.22
2019-05-21T12:39:20.332Z,21.37
2019-05-21T12:41:48.985Z,23.40
2019-05-21T12:44:20.702Z,22.50
2019-05-21T12:46:49.353Z,19.07
2019-05-21T12:49:18.207Z,23.40
2019-05-21T12:51:46.873Z,20.55
2019-05-21T12:54:15.483Z,20.10
2019-05-21T12:56:44.183Z,22.17
2019-05-21T12:59:12.883Z,20.52
2019-05-21T13:01:41.534Z,16.65
2019-05-21T13:04:10.241Z,18.90
2019-05-21T13:06:38.891Z,17.92
2019-05-21T13:09:08.427Z,18.17
2019-05-21T13:11:37.400Z,20.12
2019-05-21T13:14:06.317Z,20.43
2019-05-21T13:16:35.039Z,17.98
2019-05-21T13:19:04.295Z,19.27
2019-05-21T13:21:33.072Z,19.57
2019-05-21T13:24:01.794Z,20.05
2019-05-21T13:26:30.509Z,20.40
2019-05-21T13:28:59.309Z,19.00
2019-05-21T13:31:28.458Z,25.15
2019-05-21T13:33:57.146Z,20.37
2019-05-21T13:36:25.847Z,18.92
2019-05-21T13:38:54.739Z,20.25
2019-05-21T13:41:23.668Z,21.23
2019-05-21T13:43:52.435Z,20.30
2019-05-21T13:46:21.518Z,19.62
2019-05-21T13:48:50.278Z,19.48
2019-05-21T13:51:18.986Z,21.42
2019-05-21T13:53:47.705Z,18.50
2019-05-21T13:56:16.563Z,21.15
2019-05-21T13:58:45.542Z,21.10
2019-05-21T14:01:16.020Z,18.10
2019-05-21T14:03:45.299Z,18.82
2019-05-21T14:06:14.283Z,20.50
2019-05-21T14:08:43.360Z,23.73
2019-05-21T14:11:12.172Z,24.55
2019-05-21T14:13:40.908Z,20.23
2019-05-21T14:16:09.619Z,22.37
2019-05-21T14:18:38.306Z,23.60
2019-05-21T14:21:07.071Z,19.10
2019-05-21T14:23:35.924Z,23.50
2019-05-21T14:26:04.914Z,24.35
2019-05-21T14:28:34.637Z,21.45
2019-05-21T14:31:03.635Z,25.82
2019-05-21T14:33:32.599Z,25.27
2019-05-21T14:36:01.298Z,24.23
2019-05-21T14:38:30.065Z,21.73
2019-05-21T14:40:59.193Z,21.97
2019-05-21T14:43:28.017Z,19.62
2019-05-21T14:45:56.790Z,24.10
2019-05-21T14:48:25.817Z,25.10
2019-05-21T14:50:54.736Z,24.40
2019-05-21T14:53:23.479Z,23.57
2019-05-21T14:55:52.205Z,23.95
2019-05-21T14:58:21.089Z,24.57
2019-05-21T15:00:50.006Z,23.70
2019-05-21T15:03:25.128Z,22.20
2019-05-21T15:05:49.226Z,23.07
2019-05-21T15:08:18.071Z,22.82
2019-05-21T15:10:48.862Z,23.52
2019-05-21T15:13:17.499Z,25.75
2019-05-21T15:15:46.541Z,22.62
2019-05-21T15:18:21.300Z,24.25
2019-05-21T15:20:54.381Z,23.15
2019-05-21T15:23:23.094Z,21.85
2019-05-21T15:25:51.769Z,20.25
2019-05-21T15:28:20.567Z,18.67
2019-05-21T15:30:49.279Z,21.68
2019-05-21T15:33:18.038Z,19.70
2019-05-21T15:35:46.900Z,18.67
2019-05-21T15:38:15.876Z,19.73
2019-05-21T15:40:45.146Z,17.82
2019-05-21T15:43:13.986Z,21.37
2019-05-21T15:45:43.208Z,16.55
2019-05-21T15:48:11.975Z,17.73
2019-05-21T15:50:40.735Z,18.12
2019-05-21T15:53:09.372Z,18.12
2019-05-21T15:55:38.473Z,16.35
2019-05-21T15:58:07.372Z,14.45
2019-05-21T16:00:36.487Z,16.35
2019-05-21T16:03:05.913Z,15.60
2019-05-21T16:05:35.172Z,16.17
2019-05-21T16:08:04.836Z,14.78
2019-05-21T16:10:34.046Z,14.35
2019-05-21T16:13:03.323Z,15.88
2019-05-21T16:15:32.204Z,16.35
2019-05-21T16:18:00.914Z,11.45
2019-05-21T16:20:30.054Z,14.45
2019-05-21T16:22:58.914Z,13.88
2019-05-21T16:25:27.994Z,14.38
2019-05-21T16:27:56.760Z,11.73
2019-05-21T16:30:25.543Z,11.48
2019-05-21T16:32:54.205Z,11.38
2019-05-21T16:35:22.944Z,11.93
2019-05-21T16:37:51.865Z,12.13
2019-05-21T16:40:20.854Z,10.55
2019-05-21T16:42:49.522Z,15.03
2019-05-21T16:45:18.671Z,15.25
2019-05-21T16:47:47.639Z,13.72
2019-05-21T16:50:16.481Z,14.75
2019-05-21T16:52:45.251Z,14.20
2019-05-21T16:55:14.299Z,15.90
2019-05-21T16:57:43.082Z,17.17
2019-05-21T17:00:13.702Z,16.20
2019-05-21T17:02:42.384Z,14.90
2019-05-21T17:05:12.092Z,16.02
2019-05-21T17:07:40.781Z,13.78
2019-05-21T17:10:09.765Z,14.70
2019-05-21T17:12:38.550Z,15.45
2019-05-21T17:15:26.773Z,14.20
2019-05-21T17:17:55.502Z,14.20
2019-05-21T17:20:24.508Z,14.90
2019-05-21T17:22:53.746Z,12.93
2019-05-21T17:25:22.597Z,15.95
2019-05-21T17:27:51.373Z,14.45
2019-05-21T17:30:20.525Z,14.45
2019-05-21T17:32:49.713Z,12.95
2019-05-21T17:35:18.621Z,14.55
2019-05-21T17:37:47.312Z,12.82
2019-05-21T17:40:16.112Z,14.70
2019-05-21T17:42:45.265Z,15.00
2019-05-21T17:45:14.272Z,14.87
2019-05-21T17:47:42.984Z,13.90
2019-05-21T17:50:11.766Z,13.48
2019-05-21T17:52:40.490Z,12.80
2019-05-21T17:55:10.286Z,10.90
2019-05-21T17:57:39.200Z,13.83
2019-05-21T18:00:08.225Z,18.17
2019-05-21T18:02:37.028Z,12.95
2019-05-21T18:05:07.399Z,12.05
2019-05-21T18:07:39.339Z,10.28
2019-05-21T18:10:08.628Z,10.48
2019-05-21T18:12:37.538Z,10.80
2019-05-21T18:15:07.709Z,8.68
2019-05-21T18:17:37.110Z,8.48
2019-05-21T18:20:07.842Z,10.68
2019-05-21T18:22:36.711Z,10.80
2019-05-21T18:25:05.894Z,7.92
2019-05-21T18:27:34.801Z,9.38
2019-05-21T18:30:05.644Z,7.90
2019-05-21T18:32:36.341Z,7.75
2019-05-21T18:35:05.434Z,7.22
2019-05-21T18:37:35.061Z,7.50
2019-05-21T18:40:04.753Z,9.45
2019-05-21T18:42:33.562Z,7.53
2019-05-21T18:45:02.417Z,8.03
2019-05-21T18:47:32.671Z,9.55
2019-05-21T18:50:01.549Z,8.48
2019-05-21T18:52:32.502Z,8.83
2019-05-21T18:55:01.311Z,7.47
2019-05-21T18:57:30.194Z,7.05
2019-05-21T18:59:59.361Z,6.62
2019-05-21T19:02:28.151Z,8.23
2019-05-21T19:04:57.028Z,6.25
2019-05-21T19:07:25.733Z,6.50
2019-05-21T19:09:54.504Z,7.72
2019-05-21T19:12:36.891Z,7.42
2019-05-21T19:14:55.523Z,8.90
2019-05-21T19:17:35.255Z,8.08
2019-05-21T19:19:54.806Z,6.78
2019-05-21T19:22:23.454Z,7.72
2019-05-21T19:24:52.428Z,7.42
2019-05-21T19:27:21.127Z,11.00
2019-05-21T19:29:49.892Z,9.08
2019-05-21T19:32:18.611Z,7.22
2019-05-21T19:34:47.293Z,7.12
2019-05-21T19:37:16.003Z,9.45
2019-05-21T19:39:44.727Z,8.50
2019-05-21T19:42:14.479Z,7.65
2019-05-21T19:44:43.281Z,8.23
2019-05-21T19:47:12.128Z,9.83
2019-05-21T19:49:40.781Z,7.90
2019-05-21T19:52:09.539Z,8.08
2019-05-21T19:54:38.516Z,9.08
2019-05-21T19:57:07.450Z,7.78
2019-05-21T19:59:36.208Z,9.75
2019-05-21T20:02:06.832Z,9.48
2019-05-21T20:04:36.157Z,8.28
2019-05-21T20:07:07.530Z,8.65
2019-05-21T20:09:37.826Z,8.90
2019-05-21T20:12:09.274Z,7.40
2019-05-21T20:14:38.130Z,6.55
2019-05-21T20:17:08.775Z,9.63
2019-05-21T20:19:37.989Z,9.05
2019-05-21T20:22:08.883Z,7.75
2019-05-21T20:24:38.916Z,6.70
2019-05-21T20:27:08.622Z,4.90
2019-05-21T20:29:37.674Z,5.45
2019-05-21T20:32:06.907Z,5.42
2019-05-21T20:34:35.976Z,5.05
2019-05-21T20:37:05.746Z,5.17
2019-05-21T20:39:37.093Z,4.00
2019-05-21T20:42:06.026Z,7.08
2019-05-21T20:44:34.783Z,6.60
2019-05-21T20:47:03.851Z,5.00
2019-05-21T20:49:32.468Z,5.10
2019-05-21T20:52:17.364Z,6.17
2019-05-21T20:54:33.329Z,5.08
2019-05-21T20:57:03.045Z,5.83
2019-05-21T20:59:31.659Z,6.80
2019-05-21T21:02:00.292Z,7.17
2019-05-21T21:04:29.678Z,7.40
2019-05-21T21:06:58.471Z,5.30
2019-05-21T21:09:27.545Z,6.00
2019-05-21T21:11:56.248Z,8.55
2019-05-21T21:14:26.225Z,7.75
2019-05-21T21:16:56.022Z,6.08
2019-05-21T21:19:24.763Z,6.05
2019-05-21T21:21:53.453Z,7.00
2019-05-21T21:24:22.085Z,6.50
2019-05-21T21:26:51.120Z,5.90
2019-05-21T21:29:20.005Z,4.65
2019-05-21T21:31:48.849Z,5.70
2019-05-21T21:34:18.006Z,5.72
2019-05-21T21:36:46.779Z,4.35
2019-05-21T21:39:15.573Z,6.45
2019-05-21T21:41:44.511Z,5.83
2019-05-21T21:44:13.502Z,6.25
2019-05-21T21:46:42.158Z,5.05
2019-05-21T21:49:12.356Z,5.72
2019-05-21T21:51:40.890Z,4.42
2019-05-21T21:54:11.339Z,5.87
2019-05-21T21:56:40.002Z,6.08
2019-05-21T21:59:08.747Z,8.98
2019-05-21T22:01:46.125Z,5.22
2019-05-21T22:04:16.736Z,5.47
2019-05-21T22:06:46.302Z,7.55
2019-05-21T22:09:21.106Z,6.05
2019-05-21T22:11:51.923Z,5.08
2019-05-21T22:14:20.732Z,5.72
2019-05-21T22:16:51.674Z,7.17
2019-05-21T22:19:21.387Z,5.10
2019-05-21T22:21:51.329Z,5.33
2019-05-21T22:24:20.074Z,4.70
2019-05-21T22:26:49.296Z,5.47
2019-05-21T22:29:18.077Z,5.47
2019-05-21T22:31:46.926Z,4.17
2019-05-21T22:34:15.660Z,5.97
2019-05-21T22:36:44.491Z,5.12
2019-05-21T22:39:19.794Z,5.62
2019-05-21T22:41:48.422Z,4.15
2019-05-21T22:44:17.162Z,4.10
2019-05-21T22:46:47.996Z,5.03
2019-05-21T22:49:16.865Z,4.40
2019-05-21T22:51:45.503Z,5.95
2019-05-21T22:54:14.132Z,5.90
2019-05-21T22:56:42.786Z,7.20
2019-05-21T22:59:11.885Z,6.67
2019-05-21T23:01:41.095Z,6.12
2019-05-21T23:04:10.191Z,7.30
2019-05-21T23:06:40.563Z,7.05
2019-05-21T23:09:09.236Z,6.53
2019-05-21T23:11:37.933Z,8.35
2019-05-21T23:14:06.617Z,6.37
2019-05-21T23:16:36.899Z,5.80
2019-05-21T23:19:08.540Z,6.62
2019-05-21T23:21:39.379Z,7.42
2019-05-21T23:24:13.051Z,7.97
2019-05-21T23:26:42.552Z,9.15
2019-05-21T23:29:11.649Z,9.18
2019-05-21T23:31:40.373Z,7.55
2019-05-21T23:34:10.174Z,9.58
2019-05-21T23:36:40.753Z,9.15
2019-05-21T23:39:15.028Z,8.83
2019-05-21T23:41:45.089Z,7.75
2019-05-21T23:44:14.326Z,10.05
2019-05-21T23:46:43.003Z,7.62
2019-05-21T23:49:11.547Z,7.55
2019-05-21T23:51:40.290Z,8.23
2019-05-21T23:54:08.895Z,10.25
2019-05-21T23:56:39.146Z,10.58
2019-05-21T23:59:07.764Z,9.85
